sensor_id;sensor_type;location;lat;lon;timestamp;P1;durP1;ratioP1;P2;durP2;ratioP2
151;SDS011;68;48.792;9.164;2023-08-07T00:00:36;29.55;;;13.27;;
151;SDS011;68;48.792;9.164;2023-08-07T00:03:03;26.95;;;12.25;;
151;SDS011;68;48.792;9.164;2023-08-07T00:05:30;24.75;;;12.05;;
151;SDS011;68;48.792;9.164;2023-08-07T00:07:58;25.33;;;11.55;;
151;SDS011;68;48.792;9.164;2023-08-07T00:10:25;29.98;;;15.82;;
151;SDS011;68;48.792;9.164;2023-08-07T00:12:52;22.88;;;10.85;;
151;SDS011;68;48.792;9.164;2023-08-07T00:15:19;23.75;;;12.20;;
151;SDS011;68;48.792;9.164;2023-08-07T00:17:45;26.10;;;14.38;;
151;SDS011;68;48.792;9.164;2023-08-07T00:20:12;27.33;;;15.70;;
151;SDS011;68;48.792;9.164;2023-08-07T00:22:39;23.67;;;11.30;;
151;SDS011;68;48.792;9.164;2023-08-07T00:25:08;26.70;;;13.68;;
151;SDS011;68;48.792;9.164;2023-08-07T00:27:34;31.40;;;14.77;;
151;SDS011;68;48.792;9.164;2023-08-07T00:30:01;23.92;;;11.73;;
151;SDS011;68;48.792;9.164;2023-08-07T00:32:28;24.60;;;11.63;;
151;SDS011;68;48.792;9.164;2023-08-07T00:34:55;29.70;;;14.95;;
151;SDS011;68;48.792;9.164;2023-08-07T00:37:22;27.48;;;11.35;;
151;SDS011;68;48.792;9.164;2023-08-07T00:39:49;24.65;;;11.23;;
151;SDS011;68;48.792;9.164;2023-08-07T00:42:17;26.55;;;14.65;;
151;SDS011;68;48.792;9.164;2023-08-07T00:44:43;30.08;;;14.48;;
151;SDS011;68;48.792;9.164;2023-08-07T00:47:10;26.40;;;12.85;;
151;SDS011;68;48.792;9.164;2023-08-07T00:49:37;26.25;;;12.25;;
151;SDS011;68;48.792;9.164;2023-08-07T00:52:04;23.83;;;12.93;;
151;SDS011;68;48.792;9.164;2023-08-07T00:54:31;29.88;;;13.20;;
151;SDS011;68;48.792;9.164;2023-08-07T00:56:58;26.00;;;11.48;;
151;SDS011;68;48.792;9.164;2023-08-07T00:59:38;29.80;;;13.98;;
151;SDS011;68;48.792;9.164;2023-08-07T01:02:05;23.20;;;11.88;;
151;SDS011;68;48.792;9.164;2023-08-07T01:04:33;28.40;;;12.05;;
151;SDS011;68;48.792;9.164;2023-08-07T01:06:59;27.55;;;12.98;;
151;SDS011;68;48.792;9.164;2023-08-07T01:09:26;28.00;;;13.90;;
151;SDS011;68;48.792;9.164;2023-08-07T01:11:55;27.30;;;12.57;;
151;SDS011;68;48.792;9.164;2023-08-07T01:14:28;25.27;;;13.40;;
151;SDS011;68;48.792;9.164;2023-08-07T01:17:02;25.90;;;14.18;;
151;SDS011;68;48.792;9.164;2023-08-07T01:19:32;26.75;;;14.10;;
151;SDS011;68;48.792;9.164;2023-08-07T01:22:05;30.98;;;15.05;;
151;SDS011;68;48.792;9.164;2023-08-07T01:24:33;27.20;;;12.15;;
151;SDS011;68;48.792;9.164;2023-08-07T01:27:06;23.50;;;13.10;;
151;SDS011;68;48.792;9.164;2023-08-07T01:29:42;27.00;;;12.38;;
151;SDS011;68;48.792;9.164;2023-08-07T01:32:16;23.10;;;12.05;;
151;SDS011;68;48.792;9.164;2023-08-07T01:34:48;26.25;;;13.50;;
151;SDS011;68;48.792;9.164;2023-08-07T01:37:18;25.55;;;12.95;;
151;SDS011;68;48.792;9.164;2023-08-07T01:39:46;26.15;;;11.35;;
151;SDS011;68;48.792;9.164;2023-08-07T01:42:14;24.58;;;13.10;;
151;SDS011;68;48.792;9.164;2023-08-07T01:44:41;26.27;;;13.25;;
151;SDS011;68;48.792;9.164;2023-08-07T01:47:08;28.05;;;11.98;;
151;SDS011;68;48.792;9.164;2023-08-07T01:49:35;26.95;;;13.80;;
151;SDS011;68;48.792;9.164;2023-08-07T01:52:04;25.55;;;12.65;;
151;SDS011;68;48.792;9.164;2023-08-07T01:54:32;26.25;;;13.05;;
151;SDS011;68;48.792;9.164;2023-08-07T01:56:59;23.42;;;10.38;;
151;SDS011;68;48.792;9.164;2023-08-07T01:59:26;24.40;;;12.13;;
151;SDS011;68;48.792;9.164;2023-08-07T02:01:53;25.92;;;11.27;;
151;SDS011;68;48.792;9.164;2023-08-07T02:04:19;25.75;;;11.23;;
151;SDS011;68;48.792;9.164;2023-08-07T02:06:46;24.85;;;10.00;;
151;SDS011;68;48.792;9.164;2023-08-07T02:09:13;21.75;;;10.93;;
151;SDS011;68;48.792;9.164;2023-08-07T02:11:41;24.52;;;11.65;;
151;SDS011;68;48.792;9.164;2023-08-07T02:14:09;26.65;;;10.93;;
151;SDS011;68;48.792;9.164;2023-08-07T02:16:36;20.88;;;9.00;;
151;SDS011;68;48.792;9.164;2023-08-07T02:19:01;23.90;;;12.03;;
151;SDS011;68;48.792;9.164;2023-08-07T02:21:28;28.00;;;14.68;;
151;SDS011;68;48.792;9.164;2023-08-07T02:23:55;24.90;;;14.07;;
151;SDS011;68;48.792;9.164;2023-08-07T02:26:22;25.13;;;11.93;;
151;SDS011;68;48.792;9.164;2023-08-07T02:28:50;23.30;;;9.00;;
151;SDS011;68;48.792;9.164;2023-08-07T02:31:16;24.35;;;12.52;;
151;SDS011;68;48.792;9.164;2023-08-07T02:33:43;25.10;;;11.95;;
151;SDS011;68;48.792;9.164;2023-08-07T02:36:10;26.05;;;11.90;;
151;SDS011;68;48.792;9.164;2023-08-07T02:38:37;26.70;;;9.38;;
151;SDS011;68;48.792;9.164;2023-08-07T02:41:04;24.50;;;12.65;;
151;SDS011;68;48.792;9.164;2023-08-07T02:43:30;24.50;;;12.65;;
151;SDS011;68;48.792;9.164;2023-08-07T02:45:59;24.02;;;10.80;;
151;SDS011;68;48.792;9.164;2023-08-07T02:48:26;29.70;;;11.48;;
151;SDS011;68;48.792;9.164;2023-08-07T02:50:53;24.10;;;11.00;;
151;SDS011;68;48.792;9.164;2023-08-07T02:53:19;28.17;;;11.98;;
151;SDS011;68;48.792;9.164;2023-08-07T02:55:46;29.58;;;11.68;;
151;SDS011;68;48.792;9.164;2023-08-07T02:58:13;29.27;;;12.93;;
151;SDS011;68;48.792;9.164;2023-08-07T03:00:40;26.65;;;10.55;;
151;SDS011;68;48.792;9.164;2023-08-07T03:03:08;23.60;;;10.27;;
151;SDS011;68;48.792;9.164;2023-08-07T03:05:35;28.20;;;13.35;;
151;SDS011;68;48.792;9.164;2023-08-07T03:08:01;28.67;;;16.05;;
151;SDS011;68;48.792;9.164;2023-08-07T03:10:28;26.75;;;12.20;;
151;SDS011;68;48.792;9.164;2023-08-07T03:12:55;23.92;;;8.38;;
151;SDS011;68;48.792;9.164;2023-08-07T03:15:22;27.70;;;11.75;;
151;SDS011;68;48.792;9.164;2023-08-07T03:17:49;26.50;;;12.88;;
151;SDS011;68;48.792;9.164;2023-08-07T03:20:17;24.63;;;10.32;;
151;SDS011;68;48.792;9.164;2023-08-07T03:22:44;26.85;;;12.18;;
151;SDS011;68;48.792;9.164;2023-08-07T03:25:10;25.55;;;12.55;;
151;SDS011;68;48.792;9.164;2023-08-07T03:27:37;26.52;;;11.35;;
151;SDS011;68;48.792;9.164;2023-08-07T03:30:04;23.23;;;10.55;;
151;SDS011;68;48.792;9.164;2023-08-07T03:32:32;23.23;;;10.13;;
151;SDS011;68;48.792;9.164;2023-08-07T03:34:59;30.13;;;13.93;;
151;SDS011;68;48.792;9.164;2023-08-07T03:37:27;32.45;;;11.85;;
151;SDS011;68;48.792;9.164;2023-08-07T03:39:53;27.80;;;11.38;;
151;SDS011;68;48.792;9.164;2023-08-07T03:42:20;25.58;;;10.15;;
151;SDS011;68;48.792;9.164;2023-08-07T03:44:47;34.45;;;15.25;;
151;SDS011;68;48.792;9.164;2023-08-07T03:47:14;25.42;;;11.00;;
151;SDS011;68;48.792;9.164;2023-08-07T03:49:40;27.55;;;12.50;;
151;SDS011;68;48.792;9.164;2023-08-07T03:52:09;25.60;;;9.90;;
151;SDS011;68;48.792;9.164;2023-08-07T03:54:37;26.20;;;11.52;;
151;SDS011;68;48.792;9.164;2023-08-07T03:57:04;26.80;;;13.05;;
151;SDS011;68;48.792;9.164;2023-08-07T03:59:33;24.65;;;11.00;;
151;SDS011;68;48.792;9.164;2023-08-07T04:02:00;29.08;;;12.63;;
151;SDS011;68;48.792;9.164;2023-08-07T04:04:26;28.23;;;13.77;;
151;SDS011;68;48.792;9.164;2023-08-07T04:06:53;35.33;;;14.27;;
151;SDS011;68;48.792;9.164;2023-08-07T04:09:20;33.15;;;11.85;;
151;SDS011;68;48.792;9.164;2023-08-07T04:11:48;25.10;;;9.95;;
151;SDS011;68;48.792;9.164;2023-08-07T04:14:15;32.17;;;14.55;;
151;SDS011;68;48.792;9.164;2023-08-07T04:16:42;26.42;;;11.20;;
151;SDS011;68;48.792;9.164;2023-08-07T04:19:08;29.73;;;12.05;;
151;SDS011;68;48.792;9.164;2023-08-07T04:21:35;25.30;;;12.15;;
151;SDS011;68;48.792;9.164;2023-08-07T04:24:02;26.45;;;11.70;;
151;SDS011;68;48.792;9.164;2023-08-07T04:26:35;25.95;;;10.80;;
151;SDS011;68;48.792;9.164;2023-08-07T04:29:03;28.30;;;14.60;;
151;SDS011;68;48.792;9.164;2023-08-07T04:31:30;26.17;;;12.25;;
151;SDS011;68;48.792;9.164;2023-08-07T04:33:57;26.30;;;14.05;;
151;SDS011;68;48.792;9.164;2023-08-07T04:36:24;30.70;;;15.05;;
151;SDS011;68;48.792;9.164;2023-08-07T04:38:51;27.48;;;12.00;;
151;SDS011;68;48.792;9.164;2023-08-07T04:41:20;26.92;;;11.95;;
151;SDS011;68;48.792;9.164;2023-08-07T04:43:47;27.02;;;13.00;;
151;SDS011;68;48.792;9.164;2023-08-07T04:46:15;29.33;;;14.30;;
151;SDS011;68;48.792;9.164;2023-08-07T04:48:42;28.85;;;12.35;;
151;SDS011;68;48.792;9.164;2023-08-07T04:51:08;24.02;;;12.48;;
151;SDS011;68;48.792;9.164;2023-08-07T04:53:35;24.45;;;9.82;;
151;SDS011;68;48.792;9.164;2023-08-07T04:56:02;25.40;;;11.90;;
151;SDS011;68;48.792;9.164;2023-08-07T04:58:29;29.10;;;11.25;;
151;SDS011;68;48.792;9.164;2023-08-07T05:00:56;25.95;;;10.35;;
151;SDS011;68;48.792;9.164;2023-08-07T05:03:25;26.17;;;10.65;;
151;SDS011;68;48.792;9.164;2023-08-07T05:05:57;24.98;;;10.90;;
151;SDS011;68;48.792;9.164;2023-08-07T05:08:24;24.50;;;9.95;;
151;SDS011;68;48.792;9.164;2023-08-07T05:10:51;24.52;;;11.13;;
151;SDS011;68;48.792;9.164;2023-08-07T05:13:18;30.85;;;13.27;;
151;SDS011;68;48.792;9.164;2023-08-07T05:15:46;23.65;;;10.20;;
151;SDS011;68;48.792;9.164;2023-08-07T05:18:13;25.85;;;12.85;;
151;SDS011;68;48.792;9.164;2023-08-07T05:20:41;28.48;;;14.98;;
151;SDS011;68;48.792;9.164;2023-08-07T05:23:08;24.98;;;11.15;;
151;SDS011;68;48.792;9.164;2023-08-07T05:25:35;27.50;;;10.55;;
151;SDS011;68;48.792;9.164;2023-08-07T05:28:02;29.40;;;11.50;;
151;SDS011;68;48.792;9.164;2023-08-07T05:30:30;27.20;;;13.73;;
151;SDS011;68;48.792;9.164;2023-08-07T05:32:57;24.92;;;11.50;;
151;SDS011;68;48.792;9.164;2023-08-07T05:35:24;23.25;;;10.27;;
151;SDS011;68;48.792;9.164;2023-08-07T05:37:52;26.25;;;11.80;;
151;SDS011;68;48.792;9.164;2023-08-07T05:40:19;25.10;;;13.02;;
151;SDS011;68;48.792;9.164;2023-08-07T05:42:45;30.10;;;13.95;;
151;SDS011;68;48.792;9.164;2023-08-07T05:45:12;25.35;;;12.30;;
151;SDS011;68;48.792;9.164;2023-08-07T05:47:39;24.92;;;9.15;;
151;SDS011;68;48.792;9.164;2023-08-07T05:50:06;28.83;;;12.02;;
151;SDS011;68;48.792;9.164;2023-08-07T05:52:33;23.98;;;12.77;;
151;SDS011;68;48.792;9.164;2023-08-07T05:55:02;30.70;;;9.45;;
151;SDS011;68;48.792;9.164;2023-08-07T05:57:29;23.88;;;10.75;;
151;SDS011;68;48.792;9.164;2023-08-07T05:59:55;25.15;;;9.23;;
151;SDS011;68;48.792;9.164;2023-08-07T06:02:22;25.45;;;11.93;;
151;SDS011;68;48.792;9.164;2023-08-07T06:04:49;22.73;;;10.77;;
151;SDS011;68;48.792;9.164;2023-08-07T06:07:17;31.13;;;13.55;;
151;SDS011;68;48.792;9.164;2023-08-07T06:09:44;23.73;;;11.90;;
151;SDS011;68;48.792;9.164;2023-08-07T06:12:12;23.13;;;10.02;;
151;SDS011;68;48.792;9.164;2023-08-07T06:14:39;27.90;;;12.38;;
151;SDS011;68;48.792;9.164;2023-08-07T06:17:06;23.10;;;9.85;;
151;SDS011;68;48.792;9.164;2023-08-07T06:19:32;25.02;;;11.68;;
151;SDS011;68;48.792;9.164;2023-08-07T06:21:59;26.95;;;10.40;;
151;SDS011;68;48.792;9.164;2023-08-07T06:24:26;31.70;;;13.23;;
151;SDS011;68;48.792;9.164;2023-08-07T06:26:53;26.88;;;11.38;;
151;SDS011;68;48.792;9.164;2023-08-07T06:29:21;23.85;;;10.65;;
151;SDS011;68;48.792;9.164;2023-08-07T06:31:48;25.35;;;9.65;;
151;SDS011;68;48.792;9.164;2023-08-07T06:34:14;24.42;;;9.85;;
151;SDS011;68;48.792;9.164;2023-08-07T06:36:41;28.45;;;9.88;;
151;SDS011;68;48.792;9.164;2023-08-07T06:39:08;28.02;;;10.25;;
151;SDS011;68;48.792;9.164;2023-08-07T06:41:35;30.98;;;10.50;;
151;SDS011;68;48.792;9.164;2023-08-07T06:44:02;23.75;;;10.80;;
151;SDS011;68;48.792;9.164;2023-08-07T06:46:30;26.73;;;13.07;;
151;SDS011;68;48.792;9.164;2023-08-07T06:48:57;21.63;;;8.25;;
151;SDS011;68;48.792;9.164;2023-08-07T06:51:23;26.73;;;11.82;;
151;SDS011;68;48.792;9.164;2023-08-07T06:53:50;31.80;;;8.77;;
151;SDS011;68;48.792;9.164;2023-08-07T06:56:17;27.02;;;8.50;;
151;SDS011;68;48.792;9.164;2023-08-07T06:58:44;22.85;;;8.63;;
151;SDS011;68;48.792;9.164;2023-08-07T07:01:10;24.00;;;8.82;;
151;SDS011;68;48.792;9.164;2023-08-07T07:03:38;25.13;;;10.27;;
151;SDS011;68;48.792;9.164;2023-08-07T07:06:05;24.23;;;9.52;;
151;SDS011;68;48.792;9.164;2023-08-07T07:08:32;23.50;;;8.07;;
151;SDS011;68;48.792;9.164;2023-08-07T07:10:59;22.60;;;8.60;;
151;SDS011;68;48.792;9.164;2023-08-07T07:13:26;23.75;;;8.23;;
151;SDS011;68;48.792;9.164;2023-08-07T07:15:53;20.60;;;6.75;;
151;SDS011;68;48.792;9.164;2023-08-07T07:18:20;21.65;;;6.65;;
151;SDS011;68;48.792;9.164;2023-08-07T07:20:48;21.13;;;8.05;;
151;SDS011;68;48.792;9.164;2023-08-07T07:23:22;21.85;;;7.53;;
151;SDS011;68;48.792;9.164;2023-08-07T07:25:49;24.80;;;7.82;;
151;SDS011;68;48.792;9.164;2023-08-07T07:28:16;30.25;;;10.93;;
151;SDS011;68;48.792;9.164;2023-08-07T07:30:42;26.38;;;9.75;;
151;SDS011;68;48.792;9.164;2023-08-07T07:33:09;25.05;;;9.05;;
151;SDS011;68;48.792;9.164;2023-08-07T07:35:37;22.70;;;8.68;;
151;SDS011;68;48.792;9.164;2023-08-07T07:38:06;20.88;;;8.18;;
151;SDS011;68;48.792;9.164;2023-08-07T07:40:33;25.75;;;9.75;;
151;SDS011;68;48.792;9.164;2023-08-07T07:43:00;24.88;;;9.02;;
151;SDS011;68;48.792;9.164;2023-08-07T07:45:27;24.15;;;9.73;;
151;SDS011;68;48.792;9.164;2023-08-07T07:47:54;23.50;;;7.90;;
151;SDS011;68;48.792;9.164;2023-08-07T07:50:21;20.58;;;7.78;;
151;SDS011;68;48.792;9.164;2023-08-07T07:52:48;30.38;;;11.75;;
151;SDS011;68;48.792;9.164;2023-08-07T07:55:16;26.38;;;10.25;;
151;SDS011;68;48.792;9.164;2023-08-07T07:57:43;23.58;;;9.48;;
151;SDS011;68;48.792;9.164;2023-08-07T08:00:10;29.52;;;9.57;;
151;SDS011;68;48.792;9.164;2023-08-07T08:02:38;22.95;;;9.30;;
151;SDS011;68;48.792;9.164;2023-08-07T08:05:06;22.85;;;7.53;;
151;SDS011;68;48.792;9.164;2023-08-07T08:07:35;23.90;;;8.07;;
151;SDS011;68;48.792;9.164;2023-08-07T08:10:04;26.17;;;13.35;;
151;SDS011;68;48.792;9.164;2023-08-07T08:12:33;21.98;;;9.40;;
151;SDS011;68;48.792;9.164;2023-08-07T08:15:00;24.30;;;9.38;;
151;SDS011;68;48.792;9.164;2023-08-07T08:17:27;22.15;;;8.70;;
151;SDS011;68;48.792;9.164;2023-08-07T08:19:53;22.48;;;8.23;;
151;SDS011;68;48.792;9.164;2023-08-07T08:22:20;24.17;;;10.85;;
151;SDS011;68;48.792;9.164;2023-08-07T08:24:47;25.42;;;10.73;;
151;SDS011;68;48.792;9.164;2023-08-07T08:27:13;21.67;;;8.65;;
151;SDS011;68;48.792;9.164;2023-08-07T08:29:43;23.02;;;8.90;;
151;SDS011;68;48.792;9.164;2023-08-07T08:32:11;20.73;;;7.93;;
151;SDS011;68;48.792;9.164;2023-08-07T08:34:37;20.67;;;7.82;;
151;SDS011;68;48.792;9.164;2023-08-07T08:37:04;21.63;;;8.45;;
151;SDS011;68;48.792;9.164;2023-08-07T08:39:32;20.65;;;7.55;;
151;SDS011;68;48.792;9.164;2023-08-07T08:41:59;21.33;;;7.25;;
151;SDS011;68;48.792;9.164;2023-08-07T08:44:27;21.52;;;5.97;;
151;SDS011;68;48.792;9.164;2023-08-07T08:46:59;21.55;;;7.03;;
151;SDS011;68;48.792;9.164;2023-08-07T08:49:28;23.92;;;6.95;;
151;SDS011;68;48.792;9.164;2023-08-07T08:51:59;21.45;;;6.60;;
151;SDS011;68;48.792;9.164;2023-08-07T08:54:26;24.73;;;8.13;;
151;SDS011;68;48.792;9.164;2023-08-07T08:56:53;24.23;;;6.95;;
151;SDS011;68;48.792;9.164;2023-08-07T08:59:21;27.05;;;8.50;;
151;SDS011;68;48.792;9.164;2023-08-07T09:01:49;20.40;;;7.18;;
151;SDS011;68;48.792;9.164;2023-08-07T09:04:18;22.98;;;7.35;;
151;SDS011;68;48.792;9.164;2023-08-07T09:06:45;21.27;;;7.05;;
151;SDS011;68;48.792;9.164;2023-08-07T09:09:13;24.23;;;6.47;;
151;SDS011;68;48.792;9.164;2023-08-07T09:11:41;25.45;;;12.55;;
151;SDS011;68;48.792;9.164;2023-08-07T09:14:08;21.83;;;8.00;;
151;SDS011;68;48.792;9.164;2023-08-07T09:16:38;25.02;;;7.13;;
151;SDS011;68;48.792;9.164;2023-08-07T09:19:05;21.38;;;6.60;;
151;SDS011;68;48.792;9.164;2023-08-07T09:21:33;21.75;;;6.90;;
151;SDS011;68;48.792;9.164;2023-08-07T09:24:01;23.60;;;6.13;;
151;SDS011;68;48.792;9.164;2023-08-07T09:26:28;20.23;;;6.05;;
151;SDS011;68;48.792;9.164;2023-08-07T09:28:54;25.95;;;7.65;;
151;SDS011;68;48.792;9.164;2023-08-07T09:31:21;21.40;;;6.47;;
151;SDS011;68;48.792;9.164;2023-08-07T09:33:51;22.40;;;8.35;;
151;SDS011;68;48.792;9.164;2023-08-07T09:36:18;24.52;;;6.80;;
151;SDS011;68;48.792;9.164;2023-08-07T09:38:50;21.17;;;6.75;;
151;SDS011;68;48.792;9.164;2023-08-07T09:41:17;20.70;;;6.32;;
151;SDS011;68;48.792;9.164;2023-08-07T09:43:45;21.58;;;5.70;;
151;SDS011;68;48.792;9.164;2023-08-07T09:46:12;24.63;;;7.20;;
151;SDS011;68;48.792;9.164;2023-08-07T09:48:39;21.08;;;5.32;;
151;SDS011;68;48.792;9.164;2023-08-07T09:51:07;19.67;;;5.30;;
151;SDS011;68;48.792;9.164;2023-08-07T09:53:34;23.45;;;7.10;;
151;SDS011;68;48.792;9.164;2023-08-07T09:56:02;20.88;;;5.97;;
151;SDS011;68;48.792;9.164;2023-08-07T09:58:30;32.30;;;7.35;;
151;SDS011;68;48.792;9.164;2023-08-07T10:00:58;22.50;;;7.10;;
151;SDS011;68;48.792;9.164;2023-08-07T10:03:26;20.27;;;4.93;;
151;SDS011;68;48.792;9.164;2023-08-07T10:05:53;20.10;;;5.00;;
151;SDS011;68;48.792;9.164;2023-08-07T10:08:21;21.27;;;5.80;;
151;SDS011;68;48.792;9.164;2023-08-07T10:10:48;25.90;;;5.97;;
151;SDS011;68;48.792;9.164;2023-08-07T10:13:16;23.98;;;6.65;;
151;SDS011;68;48.792;9.164;2023-08-07T10:15:44;20.85;;;5.22;;
151;SDS011;68;48.792;9.164;2023-08-07T10:18:12;20.67;;;6.38;;
151;SDS011;68;48.792;9.164;2023-08-07T10:20:39;21.63;;;5.43;;
151;SDS011;68;48.792;9.164;2023-08-07T10:23:08;20.60;;;5.85;;
151;SDS011;68;48.792;9.164;2023-08-07T10:25:35;22.15;;;4.93;;
151;SDS011;68;48.792;9.164;2023-08-07T10:28:05;22.70;;;5.13;;
151;SDS011;68;48.792;9.164;2023-08-07T10:30:36;20.85;;;6.32;;
151;SDS011;68;48.792;9.164;2023-08-07T10:33:03;19.20;;;5.80;;
151;SDS011;68;48.792;9.164;2023-08-07T10:35:32;21.15;;;5.72;;
151;SDS011;68;48.792;9.164;2023-08-07T10:38:05;20.67;;;6.43;;
151;SDS011;68;48.792;9.164;2023-08-07T10:40:33;28.13;;;6.13;;
151;SDS011;68;48.792;9.164;2023-08-07T10:43:11;20.63;;;6.75;;
151;SDS011;68;48.792;9.164;2023-08-07T10:45:43;21.40;;;5.60;;
151;SDS011;68;48.792;9.164;2023-08-07T10:48:10;20.23;;;6.05;;
151;SDS011;68;48.792;9.164;2023-08-07T10:50:51;21.85;;;6.30;;
151;SDS011;68;48.792;9.164;2023-08-07T10:53:28;20.17;;;6.20;;
151;SDS011;68;48.792;9.164;2023-08-07T10:55:56;26.35;;;6.07;;
151;SDS011;68;48.792;9.164;2023-08-07T10:58:23;25.10;;;5.75;;
151;SDS011;68;48.792;9.164;2023-08-07T11:00:52;20.92;;;5.43;;
151;SDS011;68;48.792;9.164;2023-08-07T11:03:48;18.88;;;5.45;;
151;SDS011;68;48.792;9.164;2023-08-07T11:06:16;21.95;;;6.13;;
151;SDS011;68;48.792;9.164;2023-08-07T11:08:43;20.13;;;5.47;;
151;SDS011;68;48.792;9.164;2023-08-07T11:11:10;24.73;;;6.68;;
151;SDS011;68;48.792;9.164;2023-08-07T11:13:37;19.42;;;5.22;;
151;SDS011;68;48.792;9.164;2023-08-07T11:16:05;20.77;;;5.15;;
151;SDS011;68;48.792;9.164;2023-08-07T11:18:33;27.13;;;6.57;;
151;SDS011;68;48.792;9.164;2023-08-07T11:21:00;20.92;;;7.15;;
151;SDS011;68;48.792;9.164;2023-08-07T11:23:27;21.00;;;6.53;;
151;SDS011;68;48.792;9.164;2023-08-07T11:25:55;19.02;;;6.03;;
151;SDS011;68;48.792;9.164;2023-08-07T11:28:22;22.50;;;7.25;;
151;SDS011;68;48.792;9.164;2023-08-07T11:30:50;22.08;;;6.25;;
151;SDS011;68;48.792;9.164;2023-08-07T11:33:19;19.65;;;6.00;;
151;SDS011;68;48.792;9.164;2023-08-07T11:35:46;20.55;;;6.63;;
151;SDS011;68;48.792;9.164;2023-08-07T11:38:15;18.60;;;6.05;;
151;SDS011;68;48.792;9.164;2023-08-07T11:40:56;20.02;;;6.28;;
151;SDS011;68;48.792;9.164;2023-08-07T11:43:23;21.98;;;7.55;;
151;SDS011;68;48.792;9.164;2023-08-07T11:45:50;20.83;;;6.32;;
151;SDS011;68;48.792;9.164;2023-08-07T11:48:19;22.13;;;7.70;;
151;SDS011;68;48.792;9.164;2023-08-07T11:50:49;22.35;;;7.95;;
151;SDS011;68;48.792;9.164;2023-08-07T11:53:17;23.50;;;8.27;;
151;SDS011;68;48.792;9.164;2023-08-07T11:55:51;25.92;;;7.47;;
151;SDS011;68;48.792;9.164;2023-08-07T11:58:19;23.30;;;6.15;;
151;SDS011;68;48.792;9.164;2023-08-07T12:00:46;25.77;;;8.43;;
151;SDS011;68;48.792;9.164;2023-08-07T12:03:24;20.90;;;6.88;;
151;SDS011;68;48.792;9.164;2023-08-07T12:05:52;21.33;;;7.13;;
151;SDS011;68;48.792;9.164;2023-08-07T12:08:19;21.20;;;7.32;;
151;SDS011;68;48.792;9.164;2023-08-07T12:10:48;25.77;;;7.72;;
151;SDS011;68;48.792;9.164;2023-08-07T12:13:16;21.55;;;7.85;;
151;SDS011;68;48.792;9.164;2023-08-07T12:15:46;26.27;;;10.50;;
151;SDS011;68;48.792;9.164;2023-08-07T12:18:17;23.45;;;7.53;;
151;SDS011;68;48.792;9.164;2023-08-07T12:20:46;21.58;;;8.27;;
151;SDS011;68;48.792;9.164;2023-08-07T12:23:14;23.90;;;8.10;;
151;SDS011;68;48.792;9.164;2023-08-07T12:25:41;20.40;;;6.70;;
151;SDS011;68;48.792;9.164;2023-08-07T12:28:08;20.75;;;7.13;;
151;SDS011;68;48.792;9.164;2023-08-07T12:30:35;21.85;;;8.27;;
151;SDS011;68;48.792;9.164;2023-08-07T12:33:02;21.38;;;6.90;;
151;SDS011;68;48.792;9.164;2023-08-07T12:35:29;20.77;;;7.45;;
151;SDS011;68;48.792;9.164;2023-08-07T12:37:57;24.38;;;8.20;;
151;SDS011;68;48.792;9.164;2023-08-07T12:40:24;21.60;;;7.50;;
151;SDS011;68;48.792;9.164;2023-08-07T12:42:51;20.52;;;7.25;;
151;SDS011;68;48.792;9.164;2023-08-07T12:45:18;21.58;;;7.13;;
151;SDS011;68;48.792;9.164;2023-08-07T12:47:45;27.52;;;6.25;;
151;SDS011;68;48.792;9.164;2023-08-07T12:50:12;22.95;;;7.53;;
151;SDS011;68;48.792;9.164;2023-08-07T12:52:39;20.95;;;6.82;;
151;SDS011;68;48.792;9.164;2023-08-07T12:55:07;21.55;;;7.45;;
151;SDS011;68;48.792;9.164;2023-08-07T12:57:34;22.33;;;7.60;;
151;SDS011;68;48.792;9.164;2023-08-07T13:00:01;23.58;;;7.30;;
151;SDS011;68;48.792;9.164;2023-08-07T13:02:29;25.40;;;7.50;;
151;SDS011;68;48.792;9.164;2023-08-07T13:04:57;21.85;;;8.13;;
151;SDS011;68;48.792;9.164;2023-08-07T13:07:24;20.70;;;6.68;;
151;SDS011;68;48.792;9.164;2023-08-07T13:09:51;24.83;;;6.75;;
151;SDS011;68;48.792;9.164;2023-08-07T13:12:19;23.80;;;7.20;;
151;SDS011;68;48.792;9.164;2023-08-07T13:14:46;20.48;;;6.40;;
151;SDS011;68;48.792;9.164;2023-08-07T13:17:12;23.70;;;7.75;;
151;SDS011;68;48.792;9.164;2023-08-07T13:19:39;22.38;;;7.00;;
151;SDS011;68;48.792;9.164;2023-08-07T13:22:06;22.65;;;7.00;;
151;SDS011;68;48.792;9.164;2023-08-07T13:24:33;21.73;;;7.35;;
151;SDS011;68;48.792;9.164;2023-08-07T13:27:00;21.15;;;6.68;;
151;SDS011;68;48.792;9.164;2023-08-07T13:29:29;20.73;;;6.65;;
151;SDS011;68;48.792;9.164;2023-08-07T13:31:56;22.92;;;8.10;;
151;SDS011;68;48.792;9.164;2023-08-07T13:34:23;24.02;;;8.15;;
151;SDS011;68;48.792;9.164;2023-08-07T13:36:50;20.50;;;7.20;;
151;SDS011;68;48.792;9.164;2023-08-07T13:39:16;21.50;;;7.65;;
151;SDS011;68;48.792;9.164;2023-08-07T13:41:43;23.23;;;8.53;;
151;SDS011;68;48.792;9.164;2023-08-07T13:44:10;27.88;;;8.23;;
151;SDS011;68;48.792;9.164;2023-08-07T13:46:38;20.13;;;5.73;;
151;SDS011;68;48.792;9.164;2023-08-07T13:49:05;21.00;;;6.67;;
151;SDS011;68;48.792;9.164;2023-08-07T13:51:32;21.40;;;6.00;;
151;SDS011;68;48.792;9.164;2023-08-07T13:53:58;23.67;;;6.23;;
151;SDS011;68;48.792;9.164;2023-08-07T13:56:25;21.30;;;6.43;;
151;SDS011;68;48.792;9.164;2023-08-07T13:58:52;21.60;;;7.00;;
151;SDS011;68;48.792;9.164;2023-08-07T14:01:20;21.73;;;6.90;;
151;SDS011;68;48.792;9.164;2023-08-07T14:03:48;20.40;;;6.27;;
151;SDS011;68;48.792;9.164;2023-08-07T14:06:14;22.83;;;6.80;;
151;SDS011;68;48.792;9.164;2023-08-07T14:08:41;21.60;;;6.80;;
151;SDS011;68;48.792;9.164;2023-08-07T14:11:08;21.40;;;5.22;;
151;SDS011;68;48.792;9.164;2023-08-07T14:13:36;22.60;;;6.15;;
151;SDS011;68;48.792;9.164;2023-08-07T14:16:03;20.70;;;5.50;;
151;SDS011;68;48.792;9.164;2023-08-07T14:18:30;21.13;;;5.43;;
151;SDS011;68;48.792;9.164;2023-08-07T14:20:58;20.80;;;6.07;;
151;SDS011;68;48.792;9.164;2023-08-07T14:23:25;21.37;;;5.80;;
151;SDS011;68;48.792;9.164;2023-08-07T14:25:52;19.80;;;5.17;;
151;SDS011;68;48.792;9.164;2023-08-07T14:28:19;25.00;;;5.40;;
151;SDS011;68;48.792;9.164;2023-08-07T14:30:47;19.70;;;6.00;;
151;SDS011;68;48.792;9.164;2023-08-07T14:33:13;20.13;;;5.70;;
151;SDS011;68;48.792;9.164;2023-08-07T14:35:42;21.63;;;6.30;;
151;SDS011;68;48.792;9.164;2023-08-07T14:38:10;21.77;;;6.03;;
151;SDS011;68;48.792;9.164;2023-08-07T14:40:36;23.40;;;6.10;;
151;SDS011;68;48.792;9.164;2023-08-07T14:43:06;21.25;;;6.05;;
151;SDS011;68;48.792;9.164;2023-08-07T14:45:32;23.70;;;5.10;;
151;SDS011;68;48.792;9.164;2023-08-07T14:47:59;22.10;;;5.57;;
151;SDS011;68;48.792;9.164;2023-08-07T14:50:26;20.93;;;5.30;;
151;SDS011;68;48.792;9.164;2023-08-07T14:52:53;19.00;;;4.67;;
151;SDS011;68;48.792;9.164;2023-08-07T14:55:21;20.17;;;5.10;;
151;SDS011;68;48.792;9.164;2023-08-07T14:57:48;19.10;;;4.93;;
151;SDS011;68;48.792;9.164;2023-08-07T15:00:15;20.53;;;5.90;;
151;SDS011;68;48.792;9.164;2023-08-07T15:02:43;21.47;;;4.60;;
151;SDS011;68;48.792;9.164;2023-08-07T15:05:10;19.07;;;4.63;;
151;SDS011;68;48.792;9.164;2023-08-07T15:07:36;23.90;;;5.50;;
151;SDS011;68;48.792;9.164;2023-08-07T15:10:03;21.20;;;5.20;;
151;SDS011;68;48.792;9.164;2023-08-07T15:12:32;20.77;;;5.50;;
151;SDS011;68;48.792;9.164;2023-08-07T15:14:58;21.43;;;4.90;;
151;SDS011;68;48.792;9.164;2023-08-07T15:17:25;19.97;;;5.03;;
151;SDS011;68;48.792;9.164;2023-08-07T15:19:52;22.60;;;6.20;;
151;SDS011;68;48.792;9.164;2023-08-07T15:22:19;23.60;;;5.47;;
151;SDS011;68;48.792;9.164;2023-08-07T15:24:46;21.00;;;7.10;;
151;SDS011;68;48.792;9.164;2023-08-07T15:27:13;19.50;;;5.90;;
151;SDS011;68;48.792;9.164;2023-08-07T15:29:41;19.40;;;5.77;;
151;SDS011;68;48.792;9.164;2023-08-07T15:32:11;21.53;;;5.33;;
151;SDS011;68;48.792;9.164;2023-08-07T15:34:39;23.08;;;6.45;;
151;SDS011;68;48.792;9.164;2023-08-07T15:37:06;25.87;;;9.50;;
151;SDS011;68;48.792;9.164;2023-08-07T15:39:32;21.27;;;6.33;;
151;SDS011;68;48.792;9.164;2023-08-07T15:41:59;19.37;;;5.80;;